ES-0216 weather

Aeròdrom de Cervera
Cervera, Lleida, Spain

Public forecast

Using degrees Celsius for public forecast. Weather courtesy of forecast.io.

METAR (pilot weather report)

Closest report is Lleida-Alguaire Airport, 32.2 nm (59.6 km) W. Retrieved 2019/09/17 09:30 UTC (9 minutes ago):

LEDA 170930Z 21004KT 170V270 CAVOK 24/14 Q1019

TAF (pilot weather forecast)

Closest forecast is Lleida-Alguaire Airport, 32.2 nm (59.6 km) W. Retrieved 2019/09/17 09:00 UTC (39 minutes ago):

TAF LEDA 170800Z 1709/1809 VRB05KT 9999 FEW040 TX32/1712Z TN17/1806Z